^^
Grace C. Lehan Memorial Weather Station Historical Data
Daily Summary for May 21, 2022 Units:  English    Metric   Both
Daily Weekly Monthly Yearly
  High: Low: Average:
Temperature: 90.3 °F 63.1 °F 74.8 °F
Dew Point: 74.9 °F 61.3 °F 67.9 °F
Humidity: 96% 51.7% 81%
Wind Speed: 2.1mph 0mph 0.1mph
Wind Gust: 12mph - -
Wind- - South
Pressure: 30.00 in 29.90 in -
Precipitation: 0.01 in    
 
 
Tabular Data for May 21, 2022
Time Temperature Dew Point Pressure Wind Wind Speed Wind Gust Humidity Rainfall Rate (Hourly) solar
00:00 63.1 °F 61.3 °F 29.95 in Calm   3 mph 94% 0.00 in 0 W/m2
00:09 63.1 °F 61.3 °F 29.96 in Calm     94% 0.00 in 0 W/m2
00:14 63.1 °F 61.4 °F 29.96 in Calm     94% 0.00 in 0 W/m2
00:19 63.2 °F 61.4 °F 29.95 in Calm     94% 0.00 in 0 W/m2
00:24 63.2 °F 61.4 °F 29.95 in Calm     94% 0.00 in 0 W/m2
00:29 63.2 °F 61.4 °F 29.95 in Calm     94% 0.00 in 0 W/m2
00:34 63.2 °F 61.4 °F 29.95 in Calm     94% 0.00 in 0 W/m2
00:39 63.2 °F 61.4 °F 29.95 in Calm     94% 0.00 in 0 W/m2
00:44 63.2 °F 61.5 °F 29.95 in Calm     94% 0.00 in 0 W/m2
00:49 63.2 °F 61.5 °F 29.95 in Calm     94% 0.00 in 0 W/m2
00:54 63.2 °F 61.5 °F 29.94 in Calm     94% 0.00 in 0 W/m2
00:59 63.2 °F 61.5 °F 29.94 in Calm     94% 0.00 in 0 W/m2
01:04 63.3 °F 61.5 °F 29.94 in Calm     94% 0.00 in 0 W/m2
01:09 63.3 °F 61.5 °F 29.94 in Calm     94% 0.00 in 0 W/m2
01:14 63.3 °F 61.6 °F 29.94 in Calm     94% 0.00 in 0 W/m2
01:19 63.3 °F 61.6 °F 29.94 in Calm     94% 0.00 in 0 W/m2
01:24 63.2 °F 61.5 °F 29.94 in Calm     94% 0.00 in 0 W/m2
01:29 63.2 °F 61.5 °F 29.93 in Calm     94% 0.00 in 0 W/m2
01:34 63.2 °F 61.5 °F 29.93 in Calm     94% 0.00 in 0 W/m2
01:39 63.2 °F 61.7 °F 29.93 in Calm     94.9% 0.00 in 0 W/m2
01:44 63.3 °F 61.8 °F 29.93 in Calm     95% 0.00 in 0 W/m2
01:49 63.3 °F 61.9 °F 29.93 in Calm     95% 0.00 in 0 W/m2
01:54 63.4 °F 62 °F 29.93 in Calm     95% 0.00 in 0 W/m2
01:59 63.4 °F 62 °F 29.93 in Calm     95% 0.00 in 0 W/m2
02:04 63.5 °F 62.1 °F 29.93 in Calm     95% 0.00 in 0 W/m2
02:09 63.5 °F 62.1 °F 29.93 in Calm     95% 0.00 in 0 W/m2
02:14 63.5 °F 62.1 °F 29.92 in Calm     95% 0.00 in 0 W/m2
02:19 63.5 °F 62.1 °F 29.92 in Calm     95% 0.00 in 0 W/m2
02:24 63.5 °F 62.1 °F 29.93 in Calm     95% 0.00 in 0 W/m2
02:29 63.5 °F 62.1 °F 29.92 in Calm     95% 0.00 in 0 W/m2
02:34 63.6 °F 62.1 °F 29.92 in Calm     95% 0.00 in 0 W/m2
02:39 63.6 °F 62.1 °F 29.92 in Calm     95% 0.00 in 0 W/m2
02:44 63.6 °F 62.1 °F 29.92 in Calm     95% 0.01 in 0 W/m2
02:49 63.6 °F 62.1 °F 29.92 in Calm     95% 0.01 in 0 W/m2
02:54 63.6 °F 62.1 °F 29.92 in Calm     95% 0.01 in 0 W/m2
02:59 63.5 °F 62.1 °F 29.92 in Calm     95% 0.01 in 0 W/m2
03:04 63.5 °F 62.1 °F 29.92 in Calm     95% 0.01 in 0 W/m2
03:09 63.6 °F 62.1 °F 29.92 in Calm     95% 0.01 in 0 W/m2
03:14 63.6 °F 62.1 °F 29.92 in Calm     95% 0.01 in 0 W/m2
03:19 63.5 °F 62.1 °F 29.92 in Calm     95% 0.01 in 0 W/m2
03:24 63.6 °F 62.1 °F 29.92 in Calm     95% 0.01 in 0 W/m2
03:28 63.6 °F 62.2 °F 29.92 in Calm     95% 0.01 in 0 W/m2
03:34 63.6 °F 62.2 °F 29.91 in Calm     95% 0.01 in 0 W/m2
03:39 63.6 °F 62.2 °F 29.91 in Calm     95% 0.01 in 0 W/m2
03:44 63.6 °F 62.2 °F 29.91 in Calm     95% 0.01 in 0 W/m2
03:49 63.6 °F 62.2 °F 29.91 in Calm     95% 0.01 in 0 W/m2
03:54 63.7 °F 62.2 °F 29.91 in Calm     95% 0.01 in 0 W/m2
03:59 63.7 °F 62.2 °F 29.91 in Calm     95% 0.01 in 0 W/m2
04:00 63.7 °F 62.2 °F 29.91 in Calm     95% 0.01 in 0 W/m2
04:09 63.7 °F 62.3 °F 29.91 in Calm     95% 0.00 in 0 W/m2
04:14 63.8 °F 62.3 °F 29.91 in Calm     95% 0.00 in 0 W/m2
04:19 63.8 °F 62.3 °F 29.90 in Calm     95% 0.00 in 0 W/m2
04:24 63.8 °F 62.3 °F 29.90 in Calm     95% 0.00 in 0 W/m2
04:29 63.8 °F 62.3 °F 29.90 in Calm     95% 0.00 in 0 W/m2
04:34 63.8 °F 62.3 °F 29.90 in Calm     95% 0.00 in 0 W/m2
04:39 63.8 °F 62.3 °F 29.90 in Calm     95% 0.00 in 0 W/m2
04:44 63.8 °F 62.4 °F 29.90 in Calm     95.3% 0.00 in 0 W/m2
04:49 63.8 °F 62.6 °F 29.90 in Calm     95.9% 0.00 in 0 W/m2
04:54 63.8 °F 62.6 °F 29.90 in Calm     96% 0.00 in 0 W/m2
04:59 63.8 °F 62.6 °F 29.90 in Calm     96% 0.00 in 0 W/m2
05:04 63.8 °F 62.6 °F 29.90 in Calm     96% 0.00 in 0 W/m2
05:09 63.9 °F 62.7 °F 29.90 in Calm     96% 0.00 in 0 W/m2
05:14 63.9 °F 62.8 °F 29.91 in Calm     96% 0.00 in 0 W/m2
05:19 64 °F 62.8 °F 29.91 in Calm     96% 0.00 in 0 W/m2
05:24 64 °F 62.8 °F 29.91 in Calm     96% 0.00 in 0 W/m2
05:29 64 °F 62.8 °F 29.91 in Calm     96% 0.00 in 0 W/m2
05:34 64 °F 62.9 °F 29.91 in Calm     96% 0.00 in 0 W/m2
05:36 64 °F 62.8 °F 29.91 in Calm     96% 0.00 in 0 W/m2
06:00 64.1 °F 62.9 °F 29.92 in Calm     96% 0.00 in 4 W/m2
06:30 64.2 °F 63 °F 29.93 in Calm     96% 0.00 in 22 W/m2
07:00 64.3 °F 63.1 °F 29.94 in Calm     96% 0.00 in 37 W/m2
07:30 64.4 °F 63.2 °F 29.96 in Calm     96% 0.00 in 29 W/m2
08:04 64.7 °F 63.5 °F 29.96 in Calm     96% 0.00 in 51 W/m2
08:09 64.7 °F 63.5 °F 29.97 in Calm     96% 0.00 in 58 W/m2
08:14 64.8 °F 63.6 °F 29.97 in Calm     96% 0.00 in 65 W/m2
08:19 64.8 °F 63.6 °F 29.97 in Calm     96% 0.00 in 76 W/m2
08:24 64.8 °F 63.6 °F 29.97 in Calm     96% 0.00 in 86 W/m2
08:29 64.7 °F 63.6 °F 29.97 in Calm     96% 0.00 in 90 W/m2
08:34 64.8 °F 63.6 °F 29.97 in Calm     96% 0.00 in 86 W/m2
08:39 64.9 °F 63.8 °F 29.97 in Calm     96% 0.00 in 72 W/m2
08:44 65 °F 63.8 °F 29.97 in Calm     96% 0.00 in 65 W/m2
08:49 65 °F 63.8 °F 29.97 in Calm     96% 0.00 in 130 W/m2
08:54 65.1 °F 63.9 °F 29.98 in Calm     96% 0.00 in 148 W/m2
08:59 65.2 °F 64 °F 29.98 in Calm     96% 0.00 in 163 W/m2
09:04 65.3 °F 64.1 °F 29.98 in Calm     96% 0.00 in 204 W/m2
09:09 65.5 °F 64.4 °F 29.99 in Calm     96% 0.00 in 206 W/m2
09:14 65.7 °F 64.5 °F 29.99 in Calm     96% 0.00 in 214 W/m2
09:19 65.6 °F 64.5 °F 29.99 in Calm     96% 0.00 in 128 W/m2
09:24 65.7 °F 64.5 °F 29.99 in Calm     96% 0.00 in 134 W/m2
09:29 65.8 °F 64.6 °F 29.99 in Calm     96% 0.00 in 278 W/m2
09:34 66 °F 64.8 °F 29.99 in Calm     96% 0.00 in 306 W/m2
09:39 66.4 °F 65.2 °F 29.99 in Calm     96% 0.00 in 406 W/m2
09:44 66.8 °F 65.6 °F 29.99 in Calm     96% 0.00 in 396 W/m2
09:49 67 °F 65.8 °F 29.99 in Calm     96% 0.00 in 325 W/m2
09:54 67.1 °F 65.9 °F 29.99 in Calm     96% 0.00 in 274 W/m2
09:59 67.1 °F 65.9 °F 29.99 in Calm     96% 0.00 in 274 W/m2
10:04 67.3 °F 66 °F 29.99 in Calm     95.7% 0.00 in 232 W/m2
10:09 67.6 °F 66.3 °F 29.99 in Calm     95.5% 0.00 in 204 W/m2
10:14 67.8 °F 66.4 °F 29.99 in Calm     95.1% 0.00 in 248 W/m2
10:19 68 °F 66.5 °F 29.99 in Calm     95% 0.00 in 287 W/m2
10:24 68.2 °F 66.8 °F 29.99 in Calm     95% 0.00 in 315 W/m2
10:29 68.5 °F 66.9 °F 29.99 in Calm     94.5% 0.00 in 309 W/m2
10:34 68.8 °F 67 °F 29.99 in Calm     94% 0.00 in 550 W/m2
10:39 69.3 °F 67.5 °F 29.99 in Calm     94% 0.00 in 550 W/m2
10:44 69.7 °F 67.9 °F 30.00 in Calm     93.8% 0.00 in 309 W/m2
10:49 70 °F 67.8 °F 30.00 in Calm     92.7% 0.00 in 341 W/m2
10:54 70.2 °F 67.7 °F 30.00 in Calm     91.8% 0.00 in 350 W/m2
10:59 70.5 °F 67.8 °F 30.00 in Calm     91.3% 0.00 in 506 W/m2
11:04 70.8 °F 68.1 °F 30.00 in Calm   1 mph 91.1% 0.00 in 599 W/m2
11:09 71.2 °F 68.4 °F 30.00 in Calm   1 mph 90.7% 0.00 in 431 W/m2
11:14 71.7 °F 68.6 °F 30.00 in Calm   1 mph 90% 0.00 in 540 W/m2
11:19 72.2 °F 69 °F 30.00 in Calm   1 mph 89.5% 0.00 in 708 W/m2
11:24 72.7 °F 69.1 °F 30.00 in Calm   1 mph 88.4% 0.00 in 510 W/m2
11:29 73.2 °F 69.2 °F 30.00 in Calm   1 mph 87.4% 0.00 in 731 W/m2
11:34 74 °F 70 °F 30.00 in Calm   1 mph 87.4% 0.00 in 977 W/m2
11:39 74.8 °F 70.8 °F 30.00 in Calm   1 mph 87.3% 0.00 in 944 W/m2
11:44 75.7 °F 71 °F 30.00 in Calm   1 mph 85.6% 0.00 in 914 W/m2
11:49 76.3 °F 70.8 °F 30.00 in Calm   1 mph 83.2% 0.00 in 928 W/m2
11:54 76.6 °F 70.7 °F 30.00 in Calm   1 mph 82.1% 0.00 in 937 W/m2
11:59 76.8 °F 70.7 °F 30.00 in Calm   1 mph 81.4% 0.00 in 937 W/m2
12:04 77.2 °F 70.6 °F 29.99 in Calm     80% 0.00 in 898 W/m2
12:09 77.4 °F 71.1 °F 29.99 in Calm     80.9% 0.00 in 909 W/m2
12:14 77.9 °F 71.4 °F 29.99 in Calm     80.5% 0.00 in 872 W/m2
12:19 78.4 °F 71.4 °F 29.99 in Calm     79% 0.00 in 791 W/m2
12:24 78.6 °F 71.2 °F 29.98 in Calm     78% 0.00 in 838 W/m2
12:29 78.8 °F 71 °F 29.98 in Calm     76.9% 0.00 in 926 W/m2
12:34 79.1 °F 71.7 °F 29.98 in WNW 0.2 mph 2 mph 78.3% 0.00 in 942 W/m2
12:39 79.5 °F 71.9 °F 29.97 in Calm   2 mph 77.7% 0.00 in 919 W/m2
12:44 79.8 °F 71.3 °F 29.97 in Calm   2 mph 75.3% 0.00 in 951 W/m2
12:49 80 °F 71.7 °F 29.97 in Calm   2 mph 75.7% 0.00 in 951 W/m2
12:54 80.2 °F 71.9 °F 29.96 in Calm   2 mph 75.7% 0.00 in 949 W/m2
12:59 80.4 °F 71.8 °F 29.96 in Calm   2 mph 75.1% 0.00 in 963 W/m2
13:04 80.8 °F 72.4 °F 29.96 in North 0.2 mph 3 mph 75.7% 0.00 in 958 W/m2
13:09 81.3 °F 72.3 °F 29.96 in Calm   3 mph 74.3% 0.00 in 949 W/m2
13:14 81.7 °F 72.8 °F 29.96 in Calm   3 mph 74.4% 0.00 in 946 W/m2
13:19 82.3 °F 73.5 °F 29.96 in Calm   3 mph 75% 0.00 in 940 W/m2
13:24 82.7 °F 72.9 °F 29.96 in Calm   3 mph 72.4% 0.00 in 940 W/m2
13:29 82.8 °F 72.9 °F 29.96 in NW 0.5 mph 4 mph 71.9% 0.00 in 935 W/m2
13:34 83.1 °F 73 °F 29.96 in Calm   4 mph 71.8% 0.00 in 933 W/m2
13:39 83.4 °F 73.6 °F 29.96 in Calm     72.3% 0.00 in 933 W/m2
13:44 83.8 °F 73.6 °F 29.96 in NW 0.2 mph 3 mph 71.3% 0.00 in 928 W/m2
13:49 84.2 °F 73.7 °F 29.96 in NNW 0.7 mph 4 mph 70.8% 0.00 in 923 W/m2
13:54 84.8 °F 73.6 °F 29.96 in Calm   4 mph 69.3% 0.00 in 918 W/m2
13:59 85.3 °F 74 °F 29.96 in NNE 0.2 mph 4 mph 69.2% 0.00 in 914 W/m2
14:04 85.8 °F 74.1 °F 29.96 in NE 0.1 mph 4 mph 68% 0.00 in 905 W/m2
14:09 86.1 °F 73.7 °F 29.96 in NE 0.1 mph 3 mph 66.6% 0.00 in 904 W/m2
14:14 86.3 °F 74.5 °F 29.95 in Calm   3 mph 67.9% 0.00 in 898 W/m2
14:19 86.7 °F 74.7 °F 29.95 in Calm   3 mph 67.6% 0.00 in 891 W/m2
14:24 87 °F 74.9 °F 29.95 in Calm   3 mph 67.4% 0.00 in 889 W/m2
14:29 87.2 °F 74.7 °F 29.94 in Calm   3 mph 66.6% 0.00 in 882 W/m2
14:34 87.3 °F 74.2 °F 29.95 in Calm   3 mph 65.1% 0.00 in 875 W/m2
14:39 87.4 °F 74.5 °F 29.95 in Calm     65.6% 0.00 in 867 W/m2
14:44 87.5 °F 74.3 °F 29.94 in NE 0.1 mph 2 mph 64.9% 0.00 in 860 W/m2
14:49 87.6 °F 74.5 °F 29.94 in Calm   2 mph 65.4% 0.00 in 849 W/m2
14:54 87.8 °F 74.6 °F 29.94 in NE 0.1 mph 2 mph 65.1% 0.00 in 842 W/m2
14:59 87.9 °F 74 °F 29.93 in NE 0.2 mph 2 mph 63.7% 0.00 in 837 W/m2
15:04 88 °F 74.1 °F 29.93 in Calm   2 mph 63.6% 0.00 in 828 W/m2
15:09 88.3 °F 74.3 °F 29.93 in NE 0.2 mph 3 mph 63.5% 0.00 in 817 W/m2
15:14 88.5 °F 74.2 °F 29.93 in Calm   3 mph 62.7% 0.00 in 803 W/m2
15:19 88.6 °F 74.2 °F 29.93 in Calm   3 mph 62.6% 0.00 in 795 W/m2
15:24 88.9 °F 74.8 °F 29.93 in Calm   3 mph 63.3% 0.00 in 780 W/m2
15:29 89.1 °F 74.1 °F 29.93 in Calm   3 mph 61.4% 0.00 in 768 W/m2
15:34 89.4 °F 74.5 °F 29.93 in NW 0.1 mph 4 mph 61.6% 0.00 in 759 W/m2
15:39 89.8 °F 74.1 °F 29.93 in WSW 0.7 mph 5 mph 60.1% 0.00 in 742 W/m2
15:44 90.1 °F 73.6 °F 29.93 in WSW 0.1 mph 5 mph 58.6% 0.00 in 724 W/m2
15:49 90.2 °F 73 °F 29.93 in SW 0.4 mph 5 mph 57.2% 0.00 in 710 W/m2
15:54 90.2 °F 73 °F 29.92 in Calm   5 mph 57.2% 0.00 in 689 W/m2
15:59 90.3 °F 73.5 °F 29.92 in Calm   5 mph 58% 0.00 in 679 W/m2
16:09 90.3 °F 73.4 °F 29.92 in SSE 0.3 mph 2 mph 57.7% 0.00 in 649 W/m2
16:14 90.1 °F 73.6 °F 29.92 in South 0.4 mph 4 mph 58.5% 0.00 in 90 W/m2
16:19 90 °F 73.8 °F 29.92 in South 0.1 mph 4 mph 59.1% 0.00 in 88 W/m2
16:24 89.9 °F 74.1 °F 29.92 in South 0.5 mph 4 mph 59.8% 0.00 in 86 W/m2
16:29 89.8 °F 74.1 °F 29.92 in South 0.1 mph 4 mph 60% 0.00 in 83 W/m2
16:34 89.8 °F 74.3 °F 29.92 in Calm   4 mph 60.4% 0.00 in 81 W/m2
16:39 89.9 °F 74.5 °F 29.92 in SSW 0.7 mph 5 mph 60.6% 0.00 in 79 W/m2
16:44 90.1 °F 73.7 °F 29.92 in SSW 0.3 mph 5 mph 58.8% 0.00 in 77 W/m2
16:49 90.1 °F 72.1 °F 29.92 in SSW 0.7 mph 5 mph 55.6% 0.00 in 74 W/m2
16:54 90.2 °F 72.2 °F 29.92 in SW 1 mph 5 mph 55.5% 0.00 in 70 W/m2
16:59 90.2 °F 71 °F 29.92 in South 0.7 mph 6 mph 53.4% 0.00 in 69 W/m2
17:04 90.2 °F 70.1 °F 29.92 in South 2.1 mph 6 mph 51.9% 0.00 in 67 W/m2
17:09 90 °F 69.9 °F 29.92 in South 1.1 mph 12 mph 51.7% 0.00 in 65 W/m2
17:14 89.9 °F 70.3 °F 29.92 in South 0.8 mph 12 mph 52.7% 0.00 in 63 W/m2
17:19 89.7 °F 70.5 °F 29.92 in SSW 0.3 mph 12 mph 53.4% 0.00 in 62 W/m2
17:24 89.6 °F 70.5 °F 29.92 in SSW 1.5 mph 12 mph 53.5% 0.00 in 60 W/m2
17:29 89.4 °F 70.9 °F 29.92 in SSW 1.3 mph 12 mph 54.5% 0.00 in 60 W/m2
17:34 89.1 °F 70.9 °F 29.92 in SSW 0.6 mph 12 mph 55.1% 0.00 in 58 W/m2
17:39 88.8 °F 71.1 °F 29.93 in SSW 0.3 mph 3 mph 56% 0.00 in 58 W/m2
17:44 88.7 °F 71.4 °F 29.93 in SSW 0.2 mph 3 mph 56.8% 0.00 in 56 W/m2
17:49 88.6 °F 71.5 °F 29.93 in SSW 0.4 mph 3 mph 57.2% 0.00 in 56 W/m2
17:54 88.5 °F 71.9 °F 29.93 in SSW 0.6 mph 4 mph 58% 0.00 in 54 W/m2
17:59 88.3 °F 72.1 °F 29.93 in SSW 0.2 mph 4 mph 58.7% 0.00 in 54 W/m2
18:04 88.1 °F 72.2 °F 29.93 in SSW 1.4 mph 6 mph 59.4% 0.00 in 53 W/m2
18:09 87.9 °F 72.2 °F 29.93 in South 0.4 mph 6 mph 60% 0.00 in 51 W/m2
18:14 87.5 °F 72.2 °F 29.93 in SSW 1.3 mph 6 mph 60.4% 0.00 in 49 W/m2
18:19 87.2 °F 72.1 °F 29.93 in South 0.8 mph 6 mph 61.1% 0.00 in 49 W/m2
18:24 86.7 °F 72.2 °F 29.93 in South 1 mph 6 mph 62% 0.00 in 47 W/m2
18:29 86.3 °F 71.8 °F 29.93 in South 1.5 mph 7 mph 62.2% 0.00 in 46 W/m2
18:34 85.8 °F 71.6 °F 29.93 in South 0.5 mph 7 mph 62.7% 0.00 in 46 W/m2
18:39 85.4 °F 71.6 °F 29.93 in South 0.6 mph 7 mph 63.4% 0.00 in 44 W/m2
18:44 85.1 °F 71.9 °F 29.94 in SSW 0.1 mph 7 mph 64.6% 0.00 in 42 W/m2
18:49 84.8 °F 71.8 °F 29.94 in SSW 0.3 mph 7 mph 65% 0.00 in 40 W/m2
18:54 84.6 °F 71.6 °F 29.94 in South 0.3 mph 7 mph 65.2% 0.00 in 39 W/m2
18:59 84.3 °F 71.7 °F 29.93 in South 0.5 mph 7 mph 66% 0.00 in 37 W/m2
19:04 84 °F 71.5 °F 29.93 in South 0.2 mph 7 mph 66.2% 0.00 in 35 W/m2
19:09 83.8 °F 71.7 °F 29.94 in South 0.2 mph 3 mph 67% 0.00 in 32 W/m2
19:14 83.6 °F 71.9 °F 29.94 in Calm   3 mph 67.8% 0.00 in 30 W/m2
19:19 83.4 °F 71.7 °F 29.94 in Calm   3 mph 68% 0.00 in 28 W/m2
19:24 83.2 °F 71.9 °F 29.94 in Calm   3 mph 68.9% 0.00 in 26 W/m2
19:29 83 °F 71.7 °F 29.94 in South 0.1 mph 3 mph 69% 0.00 in 23 W/m2
19:34 82.7 °F 71.5 °F 29.94 in Calm   3 mph 69% 0.00 in 21 W/m2
19:39 82.5 °F 71.6 °F 29.94 in Calm     69.7% 0.00 in 19 W/m2
19:44 82.2 °F 71.4 °F 29.93 in South 0.1 mph 4 mph 70% 0.00 in 16 W/m2
19:49 81.9 °F 71.2 °F 29.93 in Calm   4 mph 70.3% 0.00 in 12 W/m2
19:54 81.5 °F 71.2 °F 29.92 in South 0.4 mph 4 mph 71% 0.00 in 9 W/m2
19:59 81.2 °F 70.9 °F 29.92 in South 0.1 mph 4 mph 71% 0.00 in 5 W/m2
20:09 80.6 °F 70.8 °F 29.93 in Calm     72% 0.00 in 0 W/m2
20:14 80.4 °F 70.8 °F 29.93 in Calm   1 mph 72.5% 0.00 in 0 W/m2
20:19 80.2 °F 70.7 °F 29.93 in Calm   1 mph 73% 0.00 in 0 W/m2
20:24 79.9 °F 70.5 °F 29.93 in Calm   1 mph 73% 0.00 in 0 W/m2
20:29 79.8 °F 70.7 °F 29.93 in Calm   1 mph 73.9% 0.00 in 0 W/m2
20:34 79.6 °F 70.6 °F 29.93 in South 0.2 mph 4 mph 74% 0.00 in 0 W/m2
20:39 79.4 °F 70.4 °F 29.93 in Calm   4 mph 74% 0.00 in 0 W/m2
20:44 79.2 °F 70.2 °F 29.93 in South 0.1 mph 4 mph 74% 0.00 in 0 W/m2
20:49 79 °F 70.1 °F 29.93 in South 0.2 mph 4 mph 74.2% 0.00 in 0 W/m2
20:54 78.8 °F 70.2 °F 29.94 in Calm   4 mph 74.8% 0.00 in 0 W/m2
20:59 78.7 °F 70.1 °F 29.93 in Calm   4 mph 75% 0.00 in 0 W/m2
21:04 78.5 °F 69.9 °F 29.93 in South 0.5 mph 5 mph 75% 0.00 in 0 W/m2
21:09 78.4 °F 69.8 °F 29.94 in Calm   5 mph 75% 0.00 in 0 W/m2
21:14 78.2 °F 69.7 °F 29.94 in Calm   5 mph 75.3% 0.00 in 0 W/m2
21:19 77.9 °F 69.8 °F 29.94 in SSW 0.1 mph 5 mph 76% 0.00 in 0 W/m2
21:24 77.7 °F 69.5 °F 29.94 in Calm   5 mph 76% 0.00 in 0 W/m2
21:29 77.4 °F 69.5 °F 29.95 in Calm   5 mph 76.7% 0.00 in 0 W/m2
21:34 77.2 °F 69.4 °F 29.95 in Calm   5 mph 77% 0.00 in 0 W/m2
21:39 77 °F 69.3 °F 29.95 in Calm     77% 0.00 in 0 W/m2
21:44 76.8 °F 69.1 °F 29.96 in Calm     77% 0.00 in 0 W/m2
21:49 76.6 °F 69.2 °F 29.96 in Calm     77.9% 0.00 in 0 W/m2
21:54 76.4 °F 69.1 °F 29.96 in Calm     78% 0.00 in 0 W/m2
21:59 76.2 °F 69.1 °F 29.97 in Calm     78.5% 0.00 in 0 W/m2
22:04 76 °F 69 °F 29.97 in Calm     79% 0.00 in 0 W/m2
22:09 75.8 °F 68.9 °F 29.97 in Calm     79.3% 0.00 in 0 W/m2
22:14 75.6 °F 69 °F 29.97 in Calm     80% 0.00 in 0 W/m2
22:19 75.5 °F 68.9 °F 29.97 in Calm     80% 0.00 in 0 W/m2
22:24 75.3 °F 68.7 °F 29.97 in Calm     80% 0.00 in 0 W/m2
22:29 75.1 °F 68.5 °F 29.98 in Calm     80% 0.00 in 0 W/m2
22:34 75 °F 68.6 °F 29.98 in Calm     80.6% 0.00 in 0 W/m2
22:39 74.8 °F 68.6 °F 29.98 in Calm     81% 0.00 in 0 W/m2
22:44 74.6 °F 68.6 °F 29.98 in Calm     81.6% 0.00 in 0 W/m2
22:49 74.5 °F 68.7 °F 29.98 in Calm     82% 0.00 in 0 W/m2
22:54 74.4 °F 68.5 °F 29.98 in Calm     82% 0.00 in 0 W/m2
22:59 74.3 °F 68.4 °F 29.98 in Calm     82% 0.00 in 0 W/m2
23:04 74.1 °F 68.3 °F 29.99 in Calm     82% 0.00 in 0 W/m2
23:08 74 °F 68.3 °F 29.99 in Calm     82.3% 0.00 in 0 W/m2
Hartford County Weather
Compliments of Weather Underground - 2 mb